createdAt,value
2023-10-26T00:00:03.114Z,96.29
2023-10-26T00:01:03.066Z,96.17
2023-10-26T00:02:03.076Z,96.22
2023-10-26T00:03:03.176Z,96.28
2023-10-26T00:04:03.159Z,96.20
2023-10-26T00:05:03.079Z,96.23
2023-10-26T00:06:03.059Z,95.98
2023-10-26T00:07:02.997Z,95.88
2023-10-26T00:08:02.995Z,95.77
2023-10-26T00:09:03.017Z,95.71
2023-10-26T00:10:02.945Z,95.68
2023-10-26T00:11:02.931Z,95.69
2023-10-26T00:12:02.970Z,95.63
2023-10-26T00:13:02.935Z,95.51
2023-10-26T00:14:02.905Z,95.54
2023-10-26T00:15:02.934Z,95.67
2023-10-26T00:16:02.872Z,95.43
2023-10-26T00:17:02.857Z,95.32
2023-10-26T00:18:02.896Z,95.26
2023-10-26T00:19:02.947Z,95.22
2023-10-26T00:20:02.858Z,95.30
2023-10-26T00:21:02.887Z,95.26
2023-10-26T00:22:02.802Z,95.26
2023-10-26T00:23:02.781Z,95.00
2023-10-26T00:24:02.812Z,94.88
2023-10-26T00:25:02.825Z,94.88
2023-10-26T00:26:02.732Z,94.91
2023-10-26T00:27:02.734Z,94.98
2023-10-26T00:28:02.716Z,94.92
2023-10-26T00:29:02.697Z,95.05
2023-10-26T00:30:02.767Z,95.16
2023-10-26T00:31:02.712Z,95.07
2023-10-26T00:32:02.658Z,95.11
2023-10-26T00:33:02.838Z,95.08
2023-10-26T00:34:02.715Z,95.15
2023-10-26T00:35:02.625Z,95.13
2023-10-26T00:36:02.632Z,95.01
2023-10-26T00:37:02.611Z,95.21
2023-10-26T00:38:02.588Z,95.35
2023-10-26T00:39:02.629Z,95.12
2023-10-26T00:40:02.539Z,94.74
2023-10-26T00:41:02.529Z,94.50
2023-10-26T00:42:02.688Z,94.45
2023-10-26T00:43:02.525Z,94.56
2023-10-26T00:44:02.518Z,94.66
2023-10-26T00:45:02.514Z,94.86
2023-10-26T00:46:02.471Z,94.81
2023-10-26T00:47:02.469Z,94.85
2023-10-26T00:48:02.621Z,94.96
2023-10-26T00:49:02.602Z,95.07
2023-10-26T00:50:02.419Z,95.13
2023-10-26T00:51:02.452Z,95.14
2023-10-26T00:52:02.499Z,95.37
2023-10-26T00:53:02.380Z,95.48
2023-10-26T00:54:02.403Z,95.61
2023-10-26T00:55:02.367Z,95.59
2023-10-26T00:56:02.343Z,95.60
2023-10-26T00:57:02.382Z,95.58
2023-10-26T00:58:02.325Z,95.69
2023-10-26T00:59:02.310Z,95.81
2023-10-26T01:00:02.388Z,95.91
2023-10-26T01:01:02.272Z,96.10
2023-10-26T01:02:02.304Z,96.17
2023-10-26T01:03:02.341Z,96.21
2023-10-26T01:04:02.272Z,96.34
2023-10-26T01:05:02.258Z,96.51
2023-10-26T01:06:02.288Z,96.67
2023-10-26T01:07:02.245Z,96.82
2023-10-26T01:08:02.193Z,96.74
2023-10-26T01:09:02.159Z,96.39
2023-10-26T01:10:02.267Z,96.23
2023-10-26T01:11:02.179Z,96.34
2023-10-26T01:12:02.205Z,96.35
2023-10-26T01:13:02.132Z,96.26
2023-10-26T01:14:02.110Z,96.05
2023-10-26T01:15:02.150Z,95.82
2023-10-26T01:16:02.073Z,95.52
2023-10-26T01:17:02.113Z,95.48
2023-10-26T01:18:02.102Z,95.46
2023-10-26T01:19:02.100Z,95.27
2023-10-26T01:20:02.038Z,95.21
2023-10-26T01:21:02.057Z,95.38
2023-10-26T01:22:02.046Z,95.40
2023-10-26T01:23:02.017Z,95.56
2023-10-26T01:24:02.027Z,95.63
2023-10-26T01:25:01.972Z,95.77
2023-10-26T01:26:02.005Z,95.74
2023-10-26T01:27:02.016Z,95.57
2023-10-26T01:28:01.975Z,95.52
2023-10-26T01:29:01.940Z,95.12
2023-10-26T01:30:01.963Z,94.64
2023-10-26T01:31:01.929Z,94.66
2023-10-26T01:32:01.938Z,94.52
2023-10-26T01:33:02.018Z,94.56
2023-10-26T01:34:01.869Z,94.50
2023-10-26T01:35:01.881Z,94.51
2023-10-26T01:36:01.838Z,94.22
2023-10-26T01:37:01.898Z,93.74
2023-10-26T01:38:01.842Z,93.78
2023-10-26T01:39:01.922Z,93.84
2023-10-26T01:40:01.787Z,93.96
2023-10-26T01:41:01.821Z,93.89
2023-10-26T01:42:01.793Z,93.96
2023-10-26T01:43:01.839Z,94.25
2023-10-26T01:44:01.752Z,94.14
2023-10-26T01:45:01.814Z,94.19
2023-10-26T01:46:01.725Z,94.39
2023-10-26T01:47:01.696Z,94.49
2023-10-26T01:48:01.763Z,94.56
2023-10-26T01:49:01.751Z,94.80
2023-10-26T01:50:01.672Z,94.96
2023-10-26T01:51:01.695Z,94.97
2023-10-26T01:52:01.628Z,95.01
2023-10-26T01:53:01.606Z,95.27
2023-10-26T01:54:01.623Z,95.58
2023-10-26T01:55:01.605Z,95.73
2023-10-26T01:56:01.634Z,95.80
2023-10-26T01:57:01.562Z,95.91
2023-10-26T01:58:01.565Z,95.90
2023-10-26T01:59:01.529Z,96.02
2023-10-26T02:00:01.552Z,96.15
2023-10-26T02:01:01.507Z,96.22
2023-10-26T02:02:01.537Z,96.27
2023-10-26T02:03:01.623Z,96.35
2023-10-26T02:04:01.458Z,96.41
2023-10-26T02:05:01.575Z,96.51
2023-10-26T02:06:01.620Z,96.56
2023-10-26T02:07:01.453Z,96.53
2023-10-26T02:08:01.448Z,96.47
2023-10-26T02:09:01.423Z,96.34
2023-10-26T02:10:01.401Z,96.34
2023-10-26T02:11:01.368Z,96.36
2023-10-26T02:12:01.418Z,96.36
2023-10-26T02:13:01.367Z,96.31
2023-10-26T02:14:01.345Z,96.33
2023-10-26T02:15:01.343Z,96.07
2023-10-26T02:16:01.305Z,95.79
2023-10-26T02:17:01.314Z,95.66
2023-10-26T02:18:01.375Z,95.46
2023-10-26T02:19:01.403Z,95.13
2023-10-26T02:20:01.273Z,94.78
2023-10-26T02:21:01.265Z,94.59
2023-10-26T02:22:01.471Z,94.38
2023-10-26T02:23:01.229Z,93.75
2023-10-26T02:24:01.304Z,93.53
2023-10-26T02:25:01.231Z,93.34
2023-10-26T02:26:01.199Z,93.37
2023-10-26T02:27:01.230Z,93.44
2023-10-26T02:28:01.173Z,93.69
2023-10-26T02:29:01.152Z,93.79
2023-10-26T02:30:01.223Z,93.97
2023-10-26T02:31:01.159Z,93.77
2023-10-26T02:32:01.104Z,93.74
2023-10-26T02:33:01.233Z,93.91
2023-10-26T02:34:01.091Z,93.93
2023-10-26T02:35:01.081Z,93.93
2023-10-26T02:36:01.125Z,93.73
2023-10-26T02:37:01.052Z,93.87
2023-10-26T02:38:01.063Z,93.96
2023-10-26T02:39:01.059Z,94.05
2023-10-26T02:40:01.006Z,94.27
2023-10-26T02:41:00.985Z,94.40
2023-10-26T02:42:00.973Z,94.44
2023-10-26T02:43:00.975Z,94.49
2023-10-26T02:44:00.952Z,94.10
2023-10-26T02:45:00.967Z,94.00
2023-10-26T02:46:00.928Z,94.03
2023-10-26T02:47:00.932Z,94.24
2023-10-26T02:48:00.992Z,94.49
2023-10-26T02:49:00.935Z,94.58
2023-10-26T02:50:00.919Z,94.84
2023-10-26T02:51:00.883Z,94.95
2023-10-26T02:52:00.880Z,95.22
2023-10-26T02:53:00.846Z,95.38
2023-10-26T02:54:00.885Z,95.59
2023-10-26T02:55:00.875Z,95.72
2023-10-26T02:56:00.798Z,95.82
2023-10-26T02:57:00.838Z,95.93
2023-10-26T02:58:00.772Z,96.04
2023-10-26T02:59:00.757Z,96.11
2023-10-26T03:00:00.865Z,96.09
2023-10-26T03:01:00.753Z,96.22
2023-10-26T03:02:00.760Z,96.04
2023-10-26T03:03:00.826Z,95.87
2023-10-26T03:04:00.792Z,95.64
2023-10-26T03:05:00.680Z,95.53
2023-10-26T03:06:00.697Z,95.57
2023-10-26T03:07:00.704Z,95.64
2023-10-26T03:08:00.637Z,95.84
2023-10-26T03:09:00.673Z,95.86
2023-10-26T03:10:00.657Z,95.99
2023-10-26T03:11:00.607Z,95.83
2023-10-26T03:12:00.616Z,95.54
2023-10-26T03:13:00.610Z,95.21
2023-10-26T03:14:00.558Z,95.13
2023-10-26T03:15:00.566Z,95.16
2023-10-26T03:16:00.540Z,95.07
2023-10-26T03:17:00.584Z,95.06
2023-10-26T03:18:00.587Z,95.03
2023-10-26T03:19:00.498Z,94.99
2023-10-26T03:20:00.506Z,95.01
2023-10-26T03:21:00.531Z,95.41
2023-10-26T03:22:00.479Z,95.62
2023-10-26T03:23:00.448Z,95.81
2023-10-26T03:24:00.491Z,95.95
2023-10-26T03:25:00.430Z,96.06
2023-10-26T03:26:00.415Z,96.11
2023-10-26T03:27:00.426Z,96.25
2023-10-26T03:28:00.410Z,96.36
2023-10-26T03:29:00.377Z,96.49
2023-10-26T03:30:00.454Z,96.60
2023-10-26T03:31:00.351Z,96.72
2023-10-26T03:32:00.352Z,96.77
2023-10-26T03:33:00.431Z,96.78
2023-10-26T03:34:00.333Z,96.85
2023-10-26T03:35:00.369Z,96.85
2023-10-26T03:36:00.309Z,96.98
2023-10-26T03:37:00.302Z,97.13
2023-10-26T03:38:00.263Z,97.25
2023-10-26T03:39:00.273Z,97.41
2023-10-26T03:40:00.300Z,97.56
2023-10-26T03:41:00.258Z,97.74
2023-10-26T03:42:00.238Z,97.89
2023-10-26T03:43:00.213Z,98.04
2023-10-26T03:44:00.179Z,98.24
2023-10-26T03:45:00.240Z,98.41
2023-10-26T03:46:00.169Z,98.55
2023-10-26T03:47:00.167Z,98.69
2023-10-26T03:48:00.204Z,98.82
2023-10-26T03:49:00.132Z,98.96
2023-10-26T03:50:00.249Z,99.06
2023-10-26T03:51:00.127Z,99.15
2023-10-26T03:52:00.133Z,99.27
2023-10-26T03:53:00.076Z,99.39
2023-10-26T03:54:00.080Z,99.49
2023-10-26T03:55:00.097Z,99.56
2023-10-26T03:56:00.025Z,99.66
2023-10-26T03:57:00.055Z,99.75
2023-10-26T03:58:00.050Z,99.81
2023-10-26T03:58:59.980Z,99.88
2023-10-26T04:00:00.022Z,99.97
2023-10-26T04:00:59.960Z,100.00
2023-10-26T04:01:59.989Z,100.00
2023-10-26T04:03:00.066Z,100.00
2023-10-26T04:03:59.920Z,100.00
2023-10-26T04:04:59.918Z,100.00
2023-10-26T04:05:59.906Z,100.00
2023-10-26T04:06:59.885Z,100.00
2023-10-26T04:07:59.875Z,100.00
2023-10-26T04:08:59.902Z,100.00
2023-10-26T04:09:59.836Z,100.00
2023-10-26T04:10:59.841Z,100.00
2023-10-26T04:11:59.887Z,100.00
2023-10-26T04:12:59.802Z,100.00
2023-10-26T04:13:59.789Z,100.00
2023-10-26T04:14:59.849Z,100.00
2023-10-26T04:15:59.790Z,100.00
2023-10-26T04:16:59.746Z,100.00
2023-10-26T04:17:59.781Z,100.00
2023-10-26T04:18:59.715Z,100.00
2023-10-26T04:19:59.700Z,100.00
2023-10-26T04:20:59.745Z,100.00
2023-10-26T04:21:59.685Z,100.00
2023-10-26T04:22:59.685Z,100.00
2023-10-26T04:23:59.672Z,100.00
2023-10-26T04:24:59.644Z,100.00
2023-10-26T04:25:59.661Z,100.00
2023-10-26T04:26:59.642Z,100.00
2023-10-26T04:27:59.618Z,100.00
2023-10-26T04:28:59.597Z,100.00
2023-10-26T04:29:59.622Z,100.00
2023-10-26T04:30:59.570Z,100.00
2023-10-26T04:31:59.622Z,100.00
2023-10-26T04:32:59.608Z,100.00
2023-10-26T04:33:59.574Z,100.00
2023-10-26T04:34:59.528Z,100.00
2023-10-26T04:35:59.576Z,100.00
2023-10-26T04:36:59.522Z,100.00
2023-10-26T04:37:59.521Z,100.00
2023-10-26T04:38:59.732Z,100.00
2023-10-26T04:40:00.666Z,100.00
2023-10-26T04:40:59.473Z,100.00
2023-10-26T04:41:59.444Z,100.00
2023-10-26T04:42:59.431Z,100.00
2023-10-26T04:43:59.432Z,100.00
2023-10-26T04:44:59.426Z,100.00
2023-10-26T04:45:59.414Z,100.00
2023-10-26T04:46:59.632Z,100.00
2023-10-26T04:47:59.387Z,100.00
2023-10-26T04:48:59.378Z,100.00
2023-10-26T04:49:59.352Z,100.00
2023-10-26T04:50:59.392Z,100.00
2023-10-26T04:51:59.318Z,100.00
2023-10-26T04:52:59.335Z,100.00
2023-10-26T04:53:59.315Z,100.00
2023-10-26T04:54:59.309Z,100.00
2023-10-26T04:55:59.264Z,100.00
2023-10-26T04:56:59.359Z,100.00
2023-10-26T04:57:59.247Z,100.00
2023-10-26T04:58:59.256Z,100.00
2023-10-26T04:59:59.246Z,100.00
2023-10-26T05:00:59.210Z,100.00
2023-10-26T05:01:59.236Z,100.00
2023-10-26T05:02:59.277Z,100.00
2023-10-26T05:03:59.176Z,100.00
2023-10-26T05:04:59.183Z,100.00
2023-10-26T05:05:59.281Z,100.00
2023-10-26T05:06:59.197Z,100.00
2023-10-26T05:07:59.116Z,100.00
2023-10-26T05:09:00.685Z,100.00
2023-10-26T05:09:59.074Z,100.00
2023-10-26T05:10:59.055Z,100.00
2023-10-26T05:11:59.099Z,100.00
2023-10-26T05:12:59.057Z,100.00
2023-10-26T05:13:59.027Z,100.00
2023-10-26T05:14:59.025Z,100.00
2023-10-26T05:15:58.998Z,100.00
2023-10-26T05:16:58.987Z,100.00
2023-10-26T05:17:59.071Z,100.00
2023-10-26T05:18:58.946Z,100.00
2023-10-26T05:19:58.941Z,100.00
2023-10-26T05:20:58.929Z,100.00
2023-10-26T05:21:59.648Z,100.00
2023-10-26T05:22:58.941Z,100.00
2023-10-26T05:23:59.002Z,100.00
2023-10-26T05:24:58.878Z,100.00
2023-10-26T05:25:58.863Z,100.00
2023-10-26T05:26:58.883Z,100.00
2023-10-26T05:27:58.882Z,100.00
2023-10-26T05:28:58.855Z,100.00
2023-10-26T05:29:58.827Z,100.00
2023-10-26T05:30:58.784Z,100.00
2023-10-26T05:31:58.856Z,100.00
2023-10-26T05:32:58.834Z,100.00
2023-10-26T05:33:58.776Z,100.00
2023-10-26T05:34:58.760Z,100.00
2023-10-26T05:35:58.748Z,100.00
2023-10-26T05:36:58.701Z,100.00
2023-10-26T05:37:58.723Z,100.00
2023-10-26T05:38:58.837Z,100.00
2023-10-26T05:39:58.718Z,100.00
2023-10-26T05:40:58.653Z,100.00
2023-10-26T05:41:58.664Z,100.00
2023-10-26T05:42:58.624Z,100.00
2023-10-26T05:43:58.623Z,100.00
2023-10-26T05:44:58.651Z,100.00
2023-10-26T05:45:58.656Z,100.00
2023-10-26T05:46:58.570Z,100.00
2023-10-26T05:47:58.603Z,100.00
2023-10-26T05:48:58.579Z,100.00
2023-10-26T05:49:58.566Z,100.00
2023-10-26T05:50:58.549Z,100.00
2023-10-26T05:51:58.520Z,100.00
2023-10-26T05:52:58.500Z,100.00
2023-10-26T05:53:58.498Z,100.00
2023-10-26T05:54:58.469Z,100.00
2023-10-26T05:55:58.452Z,100.00
2023-10-26T05:56:58.499Z,100.00
2023-10-26T05:57:58.471Z,100.00
2023-10-26T05:58:58.428Z,100.00
2023-10-26T05:59:58.462Z,100.00
2023-10-26T06:00:58.395Z,100.00
2023-10-26T06:01:58.373Z,100.00
2023-10-26T06:02:58.420Z,100.00
2023-10-26T06:03:58.390Z,100.00
2023-10-26T06:04:58.338Z,100.00
2023-10-26T06:05:58.356Z,100.00
2023-10-26T06:06:58.302Z,100.00
2023-10-26T06:07:58.315Z,100.00
2023-10-26T06:08:58.298Z,100.00
2023-10-26T06:09:58.290Z,100.00
2023-10-26T06:10:58.265Z,100.00
2023-10-26T06:11:58.272Z,100.00
2023-10-26T06:12:58.237Z,100.00
2023-10-26T06:13:58.226Z,100.00
2023-10-26T06:14:58.266Z,100.00
2023-10-26T06:15:58.228Z,100.00
2023-10-26T06:16:58.196Z,100.00
2023-10-26T06:17:58.368Z,100.00
2023-10-26T06:18:58.162Z,100.00
2023-10-26T06:19:58.191Z,100.00
2023-10-26T06:20:58.185Z,100.00
2023-10-26T06:21:58.115Z,100.00
2023-10-26T06:22:58.190Z,100.00
2023-10-26T06:23:58.131Z,100.00
2023-10-26T06:24:58.133Z,100.00
2023-10-26T06:25:58.058Z,100.00
2023-10-26T06:26:58.403Z,100.00
2023-10-26T06:27:58.034Z,100.00
2023-10-26T06:28:58.038Z,100.00
2023-10-26T06:29:59.870Z,100.00
2023-10-26T06:30:58.009Z,100.00
2023-10-26T06:31:58.045Z,100.00
2023-10-26T06:32:57.995Z,100.00
2023-10-26T06:33:57.955Z,100.00
2023-10-26T06:34:57.950Z,100.00
2023-10-26T06:35:57.971Z,100.00
2023-10-26T06:36:57.945Z,100.00
2023-10-26T06:37:57.933Z,100.00
2023-10-26T06:38:58.033Z,100.00
2023-10-26T06:39:57.881Z,100.00
2023-10-26T06:40:57.878Z,100.00
2023-10-26T06:41:57.947Z,100.00
2023-10-26T06:42:57.870Z,100.00
2023-10-26T06:43:57.865Z,100.00
2023-10-26T06:44:57.866Z,100.00
2023-10-26T06:45:57.826Z,100.00
2023-10-26T06:46:57.789Z,100.00
2023-10-26T06:47:57.822Z,100.00
2023-10-26T06:48:57.804Z,100.00
2023-10-26T06:49:57.757Z,100.00
2023-10-26T06:50:57.745Z,100.00
2023-10-26T06:51:57.713Z,100.00
2023-10-26T06:52:57.744Z,100.00
2023-10-26T06:53:57.718Z,100.00
2023-10-26T06:54:57.694Z,100.00
2023-10-26T06:55:57.702Z,100.00
2023-10-26T06:56:57.652Z,100.00
2023-10-26T06:57:57.654Z,100.00
2023-10-26T06:58:57.625Z,100.00
2023-10-26T06:59:57.653Z,100.00
2023-10-26T07:00:57.626Z,100.00
2023-10-26T07:02:10.070Z,100.00
2023-10-26T07:02:57.670Z,100.00
2023-10-26T07:03:57.684Z,100.00
2023-10-26T07:04:58.936Z,100.00
2023-10-26T07:05:57.578Z,100.00
2023-10-26T07:06:57.533Z,100.00
2023-10-26T07:07:57.542Z,100.00
2023-10-26T07:08:57.509Z,100.00
2023-10-26T07:09:57.503Z,100.00
2023-10-26T07:10:57.522Z,100.00
2023-10-26T07:11:57.455Z,100.00
2023-10-26T07:12:57.469Z,100.00
2023-10-26T07:13:57.456Z,100.00
2023-10-26T07:14:57.445Z,100.00
2023-10-26T07:15:57.439Z,100.00
2023-10-26T07:16:57.428Z,100.00
2023-10-26T07:17:57.399Z,100.00
2023-10-26T07:18:57.430Z,100.00
2023-10-26T07:19:57.360Z,100.00
2023-10-26T07:20:57.374Z,100.00
2023-10-26T07:21:57.336Z,100.00
2023-10-26T07:22:57.363Z,100.00
2023-10-26T07:23:57.313Z,100.00
2023-10-26T07:24:57.314Z,100.00
2023-10-26T07:25:57.311Z,100.00
2023-10-26T07:26:57.303Z,100.00
2023-10-26T07:27:57.256Z,100.00
2023-10-26T07:28:57.273Z,100.00
2023-10-26T07:29:57.249Z,100.00
2023-10-26T07:30:57.249Z,100.00
2023-10-26T07:31:57.309Z,100.00
2023-10-26T07:32:57.268Z,100.00
2023-10-26T07:33:57.205Z,100.00
2023-10-26T07:34:57.276Z,100.00
2023-10-26T07:35:57.171Z,100.00
2023-10-26T07:36:57.176Z,100.00
2023-10-26T07:38:05.751Z,100.00
2023-10-26T07:39:46.150Z,100.00
2023-10-26T07:40:27.536Z,100.00
2023-10-26T07:40:57.139Z,100.00
2023-10-26T07:42:09.229Z,100.00
2023-10-26T07:42:57.197Z,100.00
2023-10-26T07:43:57.072Z,100.00
2023-10-26T07:44:57.072Z,100.00
2023-10-26T07:45:57.089Z,100.00
2023-10-26T07:46:57.020Z,100.00
2023-10-26T07:48:01.936Z,100.00
2023-10-26T07:48:57.054Z,100.00
2023-10-26T07:49:57.022Z,100.00
2023-10-26T07:50:57.026Z,100.00
2023-10-26T07:51:56.984Z,100.00
2023-10-26T07:52:56.937Z,100.00
2023-10-26T07:53:56.957Z,100.00
2023-10-26T07:54:56.942Z,100.00
2023-10-26T07:55:56.902Z,100.00
2023-10-26T07:56:56.906Z,100.00
2023-10-26T07:57:56.873Z,100.00
2023-10-26T07:58:56.914Z,100.00
2023-10-26T07:59:56.837Z,100.00
2023-10-26T08:00:56.853Z,100.00
2023-10-26T08:01:56.991Z,100.00
2023-10-26T08:02:56.936Z,100.00
2023-10-26T08:03:56.798Z,100.00
2023-10-26T08:04:56.819Z,100.00
2023-10-26T08:05:56.778Z,100.00
2023-10-26T08:06:56.765Z,100.00
2023-10-26T08:07:56.790Z,100.00
2023-10-26T08:08:56.736Z,100.00
2023-10-26T08:09:56.722Z,100.00
2023-10-26T08:10:56.725Z,100.00
2023-10-26T08:11:56.703Z,100.00
2023-10-26T08:12:56.678Z,100.00
2023-10-26T08:13:56.770Z,100.00
2023-10-26T08:16:11.033Z,100.00
2023-10-26T08:16:45.347Z,100.00
2023-10-26T08:16:56.699Z,100.00
2023-10-26T08:17:56.737Z,100.00
2023-10-26T08:18:56.636Z,100.00
2023-10-26T08:19:58.286Z,100.00
2023-10-26T08:20:56.586Z,100.00
2023-10-26T08:21:56.573Z,100.00
2023-10-26T08:22:56.582Z,100.00
2023-10-26T08:23:56.537Z,100.00
2023-10-26T08:24:56.529Z,100.00
2023-10-26T08:25:56.546Z,100.00
2023-10-26T08:26:56.524Z,100.00
2023-10-26T08:27:56.489Z,100.00
2023-10-26T08:29:11.925Z,100.00
2023-10-26T08:29:56.459Z,100.00
2023-10-26T08:30:56.471Z,100.00
2023-10-26T08:31:56.550Z,100.00
2023-10-26T08:32:56.560Z,100.00
2023-10-26T08:33:56.419Z,100.00
2023-10-26T08:34:56.413Z,100.00
2023-10-26T08:35:56.379Z,100.00
2023-10-26T08:37:12.526Z,100.00
2023-10-26T08:37:56.377Z,100.00
2023-10-26T08:38:56.340Z,100.00
2023-10-26T08:39:56.365Z,100.00
2023-10-26T08:40:56.369Z,100.00
2023-10-26T08:41:56.314Z,100.00
2023-10-26T08:42:56.330Z,100.00
2023-10-26T08:43:56.348Z,100.00
2023-10-26T08:44:56.274Z,100.00
2023-10-26T08:45:56.288Z,100.00
2023-10-26T08:46:56.301Z,100.00
2023-10-26T08:47:56.288Z,100.00
2023-10-26T08:48:56.216Z,100.00
2023-10-26T08:50:12.398Z,100.00
2023-10-26T08:50:56.197Z,100.00
2023-10-26T08:51:56.176Z,100.00
2023-10-26T08:52:56.264Z,100.00
2023-10-26T08:53:57.784Z,100.00
2023-10-26T08:54:56.138Z,100.00
2023-10-26T08:55:56.280Z,100.00
2023-10-26T08:56:56.119Z,100.00
2023-10-26T08:57:56.285Z,100.00
2023-10-26T08:58:56.169Z,100.00
2023-10-26T08:59:56.085Z,100.00
2023-10-26T09:00:56.067Z,100.00
2023-10-26T09:01:56.130Z,100.00
2023-10-26T09:02:56.256Z,100.00
2023-10-26T09:03:56.161Z,100.00
2023-10-26T09:04:56.033Z,100.00
2023-10-26T09:05:56.034Z,100.00
2023-10-26T09:06:55.982Z,100.00
2023-10-26T09:07:56.060Z,100.00
2023-10-26T09:08:55.973Z,100.00
2023-10-26T09:09:55.945Z,100.00
2023-10-26T09:10:55.975Z,100.00
2023-10-26T09:11:55.937Z,100.00
2023-10-26T09:12:55.902Z,100.00
2023-10-26T09:13:55.922Z,100.00
2023-10-26T09:14:58.788Z,100.00
2023-10-26T09:15:55.911Z,100.00
2023-10-26T09:16:55.951Z,100.00
2023-10-26T09:17:55.877Z,100.00
2023-10-26T09:18:55.824Z,100.00
2023-10-26T09:19:55.901Z,100.00
2023-10-26T09:20:55.822Z,100.00
2023-10-26T09:21:55.800Z,100.00
2023-10-26T09:22:55.809Z,100.00
2023-10-26T09:23:55.760Z,100.00
2023-10-26T09:24:55.751Z,100.00
2023-10-26T09:25:55.805Z,100.00
2023-10-26T09:26:55.748Z,100.00
2023-10-26T09:27:55.710Z,100.00
2023-10-26T09:28:55.739Z,100.00
2023-10-26T09:29:55.695Z,100.00
2023-10-26T09:30:55.669Z,100.00
2023-10-26T09:31:55.700Z,100.00
2023-10-26T09:32:55.733Z,100.00
2023-10-26T09:33:55.642Z,100.00
2023-10-26T09:34:55.671Z,100.00
2023-10-26T09:35:55.610Z,100.00
2023-10-26T09:36:55.593Z,100.00
2023-10-26T09:37:55.612Z,100.00
2023-10-26T09:38:55.556Z,100.00
2023-10-26T09:40:12.151Z,100.00
2023-10-26T09:40:55.620Z,100.00
2023-10-26T09:41:55.518Z,100.00
2023-10-26T09:42:55.544Z,100.00
2023-10-26T09:43:55.554Z,100.00
2023-10-26T09:44:55.500Z,99.50
2023-10-26T09:45:55.492Z,99.00
2023-10-26T09:46:55.500Z,98.65
2023-10-26T09:47:55.522Z,98.47
2023-10-26T09:48:55.477Z,98.31
2023-10-26T09:49:55.479Z,98.07
2023-10-26T09:50:55.418Z,97.74
2023-10-26T09:51:55.398Z,97.79
2023-10-26T09:52:55.454Z,97.77
2023-10-26T09:53:55.375Z,97.92
2023-10-26T09:54:55.383Z,98.18
2023-10-26T09:55:55.355Z,98.21
2023-10-26T09:56:55.344Z,98.07
2023-10-26T09:57:55.364Z,98.17
2023-10-26T09:58:55.305Z,98.35
2023-10-26T09:59:56.512Z,98.32
2023-10-26T10:00:55.329Z,98.48
2023-10-26T10:01:55.368Z,98.59
2023-10-26T10:02:55.259Z,98.40
2023-10-26T10:03:55.290Z,98.15
2023-10-26T10:04:55.242Z,98.37
2023-10-26T10:05:55.238Z,98.52
2023-10-26T10:06:55.235Z,98.73
2023-10-26T10:07:55.190Z,98.78
2023-10-26T10:08:55.212Z,98.86
2023-10-26T10:09:55.213Z,98.83
2023-10-26T10:10:55.148Z,99.02
2023-10-26T10:11:55.126Z,99.10
2023-10-26T10:12:55.138Z,98.99
2023-10-26T10:13:55.110Z,98.87
2023-10-26T10:14:58.363Z,98.92
2023-10-26T10:15:55.160Z,99.01
2023-10-26T10:16:55.218Z,99.16
2023-10-26T10:17:55.125Z,99.19
2023-10-26T10:18:55.058Z,99.22
2023-10-26T10:19:55.030Z,99.23
2023-10-26T10:20:55.058Z,99.22
2023-10-26T10:21:55.040Z,99.27
2023-10-26T10:22:54.986Z,99.24
2023-10-26T10:23:55.002Z,99.19
2023-10-26T10:24:55.090Z,99.25
2023-10-26T10:25:54.974Z,99.28
2023-10-26T10:26:54.951Z,99.35
2023-10-26T10:27:54.974Z,99.35
2023-10-26T10:28:54.941Z,99.39
2023-10-26T10:29:54.921Z,99.46
2023-10-26T10:30:54.917Z,99.55
2023-10-26T10:31:54.958Z,99.65
2023-10-26T10:32:54.937Z,99.72
2023-10-26T10:33:54.875Z,99.74
2023-10-26T10:34:54.833Z,99.70
2023-10-26T10:35:54.825Z,99.67
2023-10-26T10:36:54.836Z,99.69
2023-10-26T10:37:54.825Z,99.61
2023-10-26T10:38:54.791Z,99.57
2023-10-26T10:39:54.780Z,99.47
2023-10-26T10:40:54.791Z,99.42
2023-10-26T10:41:54.744Z,99.39
2023-10-26T10:42:54.764Z,99.39
2023-10-26T10:43:54.721Z,99.47
2023-10-26T10:44:54.706Z,99.50
2023-10-26T10:45:54.709Z,99.46
2023-10-26T10:46:54.730Z,99.29
2023-10-26T10:47:54.769Z,98.97
2023-10-26T10:48:54.668Z,98.78
2023-10-26T10:49:54.601Z,98.61
2023-10-26T10:50:54.585Z,98.38
2023-10-26T10:51:54.605Z,98.11
2023-10-26T10:52:54.569Z,97.99
2023-10-26T10:53:55.030Z,97.90
2023-10-26T10:55:03.085Z,97.65
2023-10-26T10:55:54.528Z,97.63
2023-10-26T10:56:54.511Z,97.58
2023-10-26T10:57:54.602Z,97.38
2023-10-26T10:58:54.497Z,97.04
2023-10-26T10:59:54.487Z,96.54
2023-10-26T11:00:54.501Z,96.34
2023-10-26T11:01:54.490Z,96.44
2023-10-26T11:02:54.515Z,95.87
2023-10-26T11:03:54.537Z,94.99
2023-10-26T11:05:02.268Z,94.07
2023-10-26T11:05:54.410Z,93.64
2023-10-26T11:06:54.465Z,93.73
2023-10-26T11:07:54.392Z,94.10
2023-10-26T11:08:54.392Z,94.06
2023-10-26T11:09:54.400Z,93.86
2023-10-26T11:10:54.396Z,94.05
2023-10-26T11:11:54.346Z,94.12
2023-10-26T11:12:54.370Z,94.67
2023-10-26T11:13:54.311Z,94.98
2023-10-26T11:14:54.299Z,95.04
2023-10-26T11:15:54.327Z,95.43
2023-10-26T11:16:54.309Z,95.56
2023-10-26T11:17:54.299Z,95.65
2023-10-26T11:18:54.319Z,95.89
2023-10-26T11:19:54.261Z,96.14
2023-10-26T11:20:54.240Z,96.16
2023-10-26T11:21:54.269Z,96.27
2023-10-26T11:22:54.237Z,96.39
2023-10-26T11:23:54.190Z,96.40
2023-10-26T11:24:54.215Z,96.52
2023-10-26T11:25:54.169Z,96.70
2023-10-26T11:26:54.172Z,96.86
2023-10-26T11:27:54.167Z,96.87
2023-10-26T11:28:54.168Z,96.76
2023-10-26T11:29:54.126Z,96.57
2023-10-26T11:30:54.233Z,96.18
2023-10-26T11:31:54.102Z,96.03
2023-10-26T11:32:54.144Z,96.38
2023-10-26T11:33:54.157Z,96.29
2023-10-26T11:34:54.060Z,96.08
2023-10-26T11:35:54.044Z,95.96
2023-10-26T11:36:54.087Z,95.65
2023-10-26T11:37:54.036Z,95.14
2023-10-26T11:38:54.032Z,94.70
2023-10-26T11:39:54.040Z,94.72
2023-10-26T11:40:53.986Z,94.45
2023-10-26T11:41:53.965Z,94.30
2023-10-26T11:42:54.809Z,94.07
2023-10-26T11:43:53.961Z,94.23
2023-10-26T11:44:53.953Z,94.34
2023-10-26T11:45:53.956Z,94.36
2023-10-26T11:46:53.936Z,94.26
2023-10-26T11:47:53.946Z,94.54
2023-10-26T11:48:53.907Z,94.41
2023-10-26T11:49:53.874Z,93.86
2023-10-26T11:50:53.855Z,92.80
2023-10-26T11:51:59.193Z,92.27
2023-10-26T11:52:53.858Z,91.24
2023-10-26T11:53:53.822Z,88.30
2023-10-26T11:54:53.899Z,85.15
2023-10-26T11:55:53.805Z,83.86
2023-10-26T11:56:53.776Z,82.16
2023-10-26T11:57:53.798Z,82.06
2023-10-26T11:58:53.761Z,82.73
2023-10-26T11:59:53.985Z,82.90
2023-10-26T12:00:53.784Z,83.72
2023-10-26T12:01:53.733Z,83.44
2023-10-26T12:02:53.736Z,81.54
2023-10-26T12:03:53.704Z,81.63
2023-10-26T12:04:53.662Z,80.10
2023-10-26T12:05:54.909Z,80.41
2023-10-26T12:06:53.690Z,79.79
2023-10-26T12:07:53.650Z,77.77
2023-10-26T12:08:53.617Z,76.79
2023-10-26T12:09:53.695Z,75.66
2023-10-26T12:10:53.592Z,74.33
2023-10-26T12:11:53.613Z,74.88
2023-10-26T12:12:53.607Z,75.70
2023-10-26T12:13:53.558Z,77.18
2023-10-26T12:14:53.554Z,78.11
2023-10-26T12:15:53.538Z,79.97
2023-10-26T12:16:53.604Z,81.22
2023-10-26T12:17:53.584Z,81.43
2023-10-26T12:18:53.541Z,81.59
2023-10-26T12:19:53.485Z,82.72
2023-10-26T12:20:53.483Z,82.89
2023-10-26T12:21:53.650Z,83.57
2023-10-26T12:22:53.615Z,84.01
2023-10-26T12:23:53.437Z,83.43
2023-10-26T12:24:53.446Z,84.09
2023-10-26T12:25:53.396Z,85.73
2023-10-26T12:26:53.394Z,84.65
2023-10-26T12:28:20.508Z,84.22
2023-10-26T12:28:53.503Z,83.26
2023-10-26T12:29:53.352Z,83.79
2023-10-26T12:30:53.375Z,83.04
2023-10-26T12:31:53.315Z,83.77
2023-10-26T12:32:53.466Z,83.96
2023-10-26T12:33:53.310Z,85.14
2023-10-26T12:34:53.333Z,85.31
2023-10-26T12:35:53.272Z,84.62
2023-10-26T12:36:53.307Z,85.41
2023-10-26T12:37:53.240Z,85.64
2023-10-26T12:38:53.242Z,85.22
2023-10-26T12:39:53.265Z,85.72
2023-10-26T12:40:53.232Z,86.51